Terminal Aerodrome Forecast
Issued by NWS Wichita, KS

Home | Current Version | Previous Version | Text Only | Print | Product List | Glossary On
Versions: 1 2 3 4 5 6 7 8 9 10 11 12 13 14 15 16
832
FTUS43 KICT 221120
TAFICT
TAF
KICT 221120Z 2212/2312 18011KT P6SM SCT250
     FM221700 19012G18KT P6SM SCT250
     FM230000 17010KT P6SM FEW250=

USA.gov is the U.S. government's official web portal to all federal, state and local government web resources and services.